Time;durP1;ratioP1;P1;durP2;ratioP2;P2;SDS_P1;SDS_P2;PMS_P1;PMS_P2;Temp;Humidity;BMP_temperature;BMP_pressure;BME280_temperature;BME280_humidity;BME280_pressure;Samples;Min_cycle;Max_cycle;Signal;HPM_P1;HPM_P2
2024/04/15 00:00:07;;;;;;;15.40;3.03;;;;;;;8.66;100.00;99741.53;4749324;30;20036;-86
2024/04/15 00:02:38;;;;;;;12.20;2.60;;;;;;;8.59;100.00;99729.94;4762733;30;20038;-81
2024/04/15 00:05:13;;;;;;;14.60;2.42;;;;;;;8.59;100.00;99724.66;4743493;30;20048;-84
2024/04/15 00:07:40;;;;;;;12.70;2.07;;;;;;;8.60;100.00;99721.06;4735522;30;20047;-85
2024/04/15 00:10:14;;;;;;;13.68;2.10;;;;;;;8.59;100.00;99709.69;4758031;30;20461;-83
2024/04/15 00:12:40;;;;;;;15.90;2.95;;;;;;;8.55;100.00;99710.97;4758275;30;20039;-84
2024/04/15 00:15:21;;;;;;;11.05;2.58;;;;;;;8.57;100.00;99693.19;4749854;30;20405;-90
2024/04/15 00:21:00;;;;;;;8.55;1.40;;;;;;;8.58;100.00;99672.97;4708002;30;20048;-82
2024/04/15 00:23:30;;;;;;;14.32;2.10;;;;;;;8.52;100.00;99666.47;4715409;30;20040;-83
2024/04/15 00:26:02;;;;;;;16.00;2.15;;;;;;;8.46;100.00;99654.72;4742125;30;20105;-82
2024/04/15 00:28:30;;;;;;;13.75;2.00;;;;;;;8.52;100.00;99664.63;4751710;30;20731;-84
2024/04/15 00:31:05;;;;;;;13.80;2.20;;;;;;;8.48;100.00;99631.69;4743142;30;20533;-83
2024/04/15 00:33:31;;;;;;;8.73;2.03;;;;;;;8.40;100.00;99634.25;4761796;30;20591;-86
2024/04/15 00:35:57;;;;;;;11.23;1.60;;;;;;;8.41;100.00;99615.66;4761116;30;20066;-82
2024/04/15 00:38:26;;;;;;;16.13;2.15;;;;;;;8.46;100.00;99615.22;4742025;30;20574;-88
2024/04/15 00:40:57;;;;;;;9.40;1.83;;;;;;;8.48;100.00;99602.72;4756699;30;20501;-90
2024/04/15 00:43:25;;;;;;;10.95;2.00;;;;;;;8.42;100.00;99592.78;4751516;30;20506;-87
2024/04/15 00:46:13;;;;;;;9.70;1.90;;;;;;;8.36;100.00;99574.97;4750679;30;20060;-82
2024/04/15 00:49:01;;;;;;;18.83;2.10;;;;;;;8.42;100.00;99569.09;4762712;30;20052;-87
2024/04/15 00:51:28;;;;;;;11.68;2.63;;;;;;;8.41;100.00;99559.53;4753493;30;20048;-84
2024/04/15 00:53:58;;;;;;;15.75;2.58;;;;;;;8.50;100.00;99540.19;4748489;30;20036;-83
2024/04/15 00:56:27;;;;;;;11.77;2.13;;;;;;;8.54;100.00;99540.69;4748904;30;20055;-85
2024/04/15 00:59:45;;;;;;;15.48;2.13;;;;;;;8.65;100.00;99532.59;4748210;30;20049;-84
2024/04/15 01:02:14;;;;;;;13.85;2.33;;;;;;;8.72;100.00;99535.44;4746780;30;20127;-82
2024/04/15 01:04:40;;;;;;;15.02;1.58;;;;;;;8.78;100.00;99532.19;4762216;30;20563;-83
2024/04/15 01:07:13;;;;;;;12.68;2.70;;;;;;;8.89;100.00;99541.63;4754018;30;20417;-83
2024/04/15 01:09:51;;;;;;;11.05;1.88;;;;;;;8.83;100.00;99530.88;4764415;30;20730;-86
2024/04/15 01:12:44;;;;;;;;;;;;;;;;;;;;;
2024/04/15 01:15:46;;;;;;;8.63;2.08;;;;;;;8.81;100.00;99512.59;4751590;30;20028;-84
2024/04/15 01:18:53;;;;;;;8.43;1.38;;;;;;;8.73;100.00;99500.19;4734876;30;20052;-84
2024/04/15 01:21:45;;;;;;;13.10;1.95;;;;;;;8.78;100.00;99490.03;4763247;30;20558;-80
2024/04/15 01:24:26;;;;;;;14.85;2.22;;;;;;;8.71;100.00;99473.19;4764081;30;20200;-81
2024/04/15 01:26:58;;;;;;;11.32;1.88;;;;;;;8.80;100.00;99452.97;4763127;30;20093;-83
2024/04/15 01:30:20;;;;;;;15.43;2.22;;;;;;;8.79;100.00;99460.03;4746329;30;20052;-82
2024/04/15 01:32:52;;;;;;;18.15;2.45;;;;;;;8.81;100.00;99462.50;4747183;30;20040;-86
2024/04/15 01:39:48;;;;;;;;;;;;;;;;;;;;;
2024/04/15 01:44:00;;;;;;;14.77;2.58;;;;;;;8.85;100.00;99440.16;4760449;30;20090;-82
2024/04/15 01:46:56;;;;;;;8.10;1.90;;;;;;;8.81;100.00;99460.72;4757487;30;20044;-82
2024/04/15 01:49:26;;;;;;;11.02;1.92;;;;;;;8.74;100.00;99446.53;4760696;30;20142;-82
2024/04/15 01:52:09;;;;;;;7.97;1.50;;;;;;;8.80;100.00;99443.28;4730999;30;20046;-84
2024/04/15 01:54:38;;;;;;;8.80;1.52;;;;;;;8.70;100.00;99429.38;4758573;30;20040;-86
2024/04/15 01:57:33;;;;;;;10.55;2.08;;;;;;;8.75;100.00;99452.59;4761463;30;20044;-88
2024/04/15 02:01:04;;;;;;;12.75;1.67;;;;;;;8.62;100.00;99450.41;4761239;30;20070;-83
2024/04/15 02:03:50;;;;;;;12.07;1.70;;;;;;;8.53;100.00;99452.13;4748574;30;20055;-81
2024/04/15 02:06:55;;;;;;;8.77;1.88;;;;;;;8.40;100.00;99434.13;4761882;30;20055;-88
2024/04/15 02:10:01;;;;;;;9.85;1.48;;;;;;;8.37;100.00;99426.53;4736790;30;20044;-84
2024/04/15 02:12:44;;;;;;;9.35;1.45;;;;;;;8.33;100.00;99441.78;4742365;30;20414;-85
2024/04/15 02:15:43;;;;;;;9.50;1.77;;;;;;;8.26;100.00;99456.56;4751486;30;20152;-88
2024/04/15 02:18:23;;;;;;;5.22;0.90;;;;;;;8.13;100.00;99491.19;4743834;30;20040;-87
2024/04/15 02:20:49;;;;;;;9.82;1.50;;;;;;;8.07;100.00;99488.16;4760419;30;20044;-81
2024/04/15 02:23:26;;;;;;;2.88;0.57;;;;;;;7.87;100.00;99484.06;4746507;30;20036;-80
2024/04/15 02:26:06;;;;;;;4.88;0.60;;;;;;;7.68;100.00;99505.09;4759907;30;20039;-85
2024/04/15 02:28:38;;;;;;;4.78;0.40;;;;;;;7.56;100.00;99501.84;4763547;30;20619;-82
2024/04/15 02:31:23;;;;;;;1.75;0.45;;;;;;;7.38;100.00;99486.03;4745189;30;20051;-85
2024/04/15 02:34:48;;;;;;;3.03;0.47;;;;;;;7.32;100.00;99486.63;4761205;30;20052;-83
2024/04/15 02:37:55;;;;;;;4.75;0.60;;;;;;;7.24;100.00;99468.13;4756481;30;20099;-88
2024/04/15 02:41:11;;;;;;;4.05;0.52;;;;;;;7.28;100.00;99482.63;4740428;30;20043;-84
2024/04/15 02:44:42;;;;;;;5.72;0.88;;;;;;;7.28;100.00;99507.13;4747541;30;20052;-89
2024/04/15 02:47:50;;;;;;;3.20;0.80;;;;;;;7.19;100.00;99492.22;4742695;30;20048;-84
2024/04/15 02:50:16;;;;;;;4.10;0.50;;;;;;;7.27;100.00;99525.66;4737864;30;20059;-82
2024/04/15 02:52:48;;;;;;;4.10;0.60;;;;;;;7.22;100.00;99520.00;4741246;30;20040;-87
2024/04/15 02:55:46;;;;;;;5.10;0.70;;;;;;;7.25;100.00;99562.63;4753295;30;20047;-82
2024/04/15 02:58:16;;;;;;;5.93;1.02;;;;;;;7.29;100.00;99573.69;4736256;30;20057;-89
2024/04/15 03:00:41;;;;;;;7.65;1.23;;;;;;;7.26;100.00;99595.81;4744854;30;20405;-84
2024/04/15 03:03:16;;;;;;;8.32;0.95;;;;;;;7.17;100.00;99576.47;4745738;30;20067;-89
2024/04/15 03:05:48;;;;;;;6.88;0.77;;;;;;;7.18;100.00;99557.09;4735782;30;20103;-89
2024/04/15 03:08:16;;;;;;;6.78;1.05;;;;;;;7.05;100.00;99533.78;4754346;30;20043;-86
2024/04/15 03:11:06;;;;;;;7.93;1.33;;;;;;;7.19;100.00;99535.13;4743267;30;20536;-88
2024/04/15 03:13:40;;;;;;;5.88;2.05;;;;;;;7.04;100.00;99516.34;4760413;30;20040;-83
2024/04/15 03:29:03;;;;;;;11.55;1.80;;;;;;;6.95;100.00;99522.47;4610866;31;20051;-90
2024/04/15 03:37:26;;;;;;;15.10;2.25;;;;;;;6.95;100.00;99544.31;4690878;30;20133;-93
2024/04/15 03:40:27;;;;;;;18.23;2.25;;;;;;;6.94;100.00;99544.47;4639069;30;20105;-91
2024/04/15 03:43:41;;;;;;;17.08;2.60;;;;;;;6.94;100.00;99547.09;4599359;31;20075;-92
2024/04/15 03:50:37;;;;;;;17.88;3.25;;;;;;;6.90;100.00;99535.19;4568666;31;20054;-95
2024/04/15 03:53:33;;;;;;;10.23;2.25;;;;;;;6.85;100.00;99535.63;4566791;31;20082;-94
2024/04/15 04:05:11;;;;;;;26.52;3.72;;;;;;;6.64;100.00;99562.91;4690068;30;20064;-93
2024/04/15 04:08:17;;;;;;;15.48;2.83;;;;;;;6.65;100.00;99574.25;4694731;30;20046;-90
2024/04/15 04:15:56;;;;;;;16.63;2.63;;;;;;;6.52;100.00;99575.38;4668632;30;20091;-90
2024/04/15 04:26:09;;;;;;;7.85;1.33;;;;;;;6.34;100.00;99609.34;4610223;30;20012;-92
2024/04/15 04:29:10;;;;;;;9.02;0.90;;;;;;;6.30;100.00;99600.09;4666217;30;20128;-89
2024/04/15 04:31:42;;;;;;;13.02;1.85;;;;;;;6.33;100.00;99590.16;4649415;30;20050;-91
2024/04/15 04:34:24;;;;;;;6.32;0.90;;;;;;;6.20;100.00;99594.84;4644810;30;20055;-91
2024/04/15 04:41:06;;;;;;;4.38;0.98;;;;;;;6.07;100.00;99598.56;4689322;30;20135;-91
2024/04/15 04:45:03;;;;;;;5.22;0.75;;;;;;;6.01;100.00;99583.34;4642621;30;20050;-95
2024/04/15 04:51:54;;;;;;;4.28;0.70;;;;;;;5.88;100.00;99611.59;4677051;30;20054;-85
2024/04/15 04:55:10;;;;;;;9.82;1.50;;;;;;;5.82;100.00;99605.09;4662892;30;20084;-90
2024/04/15 04:57:55;;;;;;;4.35;0.70;;;;;;;5.79;100.00;99614.06;4670645;30;20046;-95
2024/04/15 05:00:45;;;;;;;6.80;0.77;;;;;;;5.80;100.00;99622.75;4692491;30;20076;-88
2024/04/15 05:03:24;;;;;;;6.95;1.45;;;;;;;5.74;100.00;99629.38;4682122;30;20436;-89
2024/04/15 05:05:53;;;;;;;12.18;1.45;;;;;;;5.67;100.00;99634.31;4708282;30;20052;-89
2024/04/15 05:08:56;;;;;;;7.57;1.10;;;;;;;5.68;100.00;99620.25;4721413;30;20103;-90
2024/04/15 05:11:47;;;;;;;9.90;1.13;;;;;;;5.68;100.00;99632.53;4724881;30;20041;-94
2024/04/15 05:14:31;;;;;;;10.55;1.30;;;;;;;5.64;100.00;99628.53;4717085;30;20040;-92
2024/04/15 05:17:19;;;;;;;10.45;2.33;;;;;;;5.61;100.00;99634.84;4732041;30;20041;-83
2024/04/15 05:19:54;;;;;;;9.25;1.02;;;;;;;5.56;100.00;99643.09;4731381;30;20040;-90
2024/04/15 05:22:25;;;;;;;7.22;0.75;;;;;;;5.46;100.00;99635.19;4729891;30;20057;-94
2024/04/15 05:25:03;;;;;;;3.15;0.60;;;;;;;5.46;100.00;99637.00;4743365;30;20036;-95
2024/04/15 05:27:44;;;;;;;5.85;0.90;;;;;;;5.42;100.00;99659.19;4728231;30;20113;-94
2024/04/15 05:30:16;;;;;;;2.58;0.57;;;;;;;5.42;100.00;99661.78;4724431;30;20048;-91
2024/04/15 05:32:43;;;;;;;5.43;0.93;;;;;;;5.32;100.00;99659.97;4721211;30;20040;-87
2024/04/15 05:35:11;;;;;;;3.15;0.80;;;;;;;5.25;100.00;99660.59;4720305;30;20056;-90
2024/04/15 05:37:37;;;;;;;6.15;1.00;;;;;;;5.23;100.00;99671.22;4725126;30;20503;-89
2024/04/15 05:40:04;;;;;;;5.50;1.00;;;;;;;5.15;100.00;99669.25;4720371;30;20044;-94
2024/04/15 05:42:55;;;;;;;6.88;1.17;;;;;;;5.19;100.00;99680.31;4724351;30;20127;-95
2024/04/15 05:45:26;;;;;;;6.70;0.98;;;;;;;5.14;100.00;99687.72;4709071;30;20081;-95
2024/04/15 05:47:55;;;;;;;9.82;1.02;;;;;;;5.11;100.00;99687.97;4723005;30;20048;-95
2024/04/15 05:50:21;;;;;;;7.57;1.15;;;;;;;5.08;100.00;99689.06;4725655;30;20063;-96
2024/04/15 05:52:47;;;;;;;8.20;1.08;;;;;;;5.07;100.00;99682.97;4710269;30;20053;-93
2024/04/15 05:55:23;;;;;;;15.27;1.50;;;;;;;5.05;100.00;99686.66;4714096;30;20044;-94
2024/04/15 05:57:49;;;;;;;9.38;1.52;;;;;;;5.07;100.00;99682.97;4709548;30;20029;-95
2024/04/15 06:00:18;;;;;;;9.55;1.20;;;;;;;5.09;100.00;99693.34;4716664;30;20052;-95
2024/04/15 06:02:54;;;;;;;10.48;1.73;;;;;;;5.09;100.00;99691.56;4737121;30;20048;-95
2024/04/15 06:05:26;;;;;;;9.15;1.40;;;;;;;5.14;100.00;99691.16;4726310;30;20084;-95
2024/04/15 06:07:52;;;;;;;7.07;1.20;;;;;;;5.14;100.00;99699.03;4712133;30;20116;-96
2024/04/15 06:10:18;;;;;;;8.95;1.48;;;;;;;5.21;100.00;99712.44;4722610;30;20116;-89
2024/04/15 06:12:44;;;;;;;11.23;1.73;;;;;;;5.20;100.00;99711.63;4734029;30;20123;-85
2024/04/15 06:15:10;;;;;;;14.20;1.83;;;;;;;5.29;100.00;99723.09;4734524;30;20045;-95
2024/04/15 06:17:46;;;;;;;9.50;1.48;;;;;;;5.39;100.00;99722.34;4705413;30;20076;-93
2024/04/15 06:20:27;;;;;;;11.43;1.10;;;;;;;5.42;100.00;99737.81;4742862;30;20060;-91
2024/04/15 06:22:53;;;;;;;11.75;1.55;;;;;;;5.45;100.00;99737.53;4719210;30;20057;-88
2024/04/15 06:25:22;;;;;;;9.90;1.88;;;;;;;5.39;100.00;99730.19;4704107;30;20096;-91
2024/04/15 06:28:00;;;;;;;17.27;2.17;;;;;;;5.53;100.00;99755.25;4733174;30;20128;-94
2024/04/15 06:30:45;;;;;;;9.10;1.58;;;;;;;5.56;100.00;99753.22;4718008;30;20078;-90
2024/04/15 06:33:11;;;;;;;10.43;1.60;;;;;;;5.55;100.00;99764.66;4711781;30;20040;-88
2024/04/15 06:35:40;;;;;;;9.30;2.35;;;;;;;5.62;100.00;99762.38;4716930;30;20052;-95
2024/04/15 06:38:13;;;;;;;17.88;1.98;;;;;;;5.64;100.00;99762.25;4719775;30;20052;-94
2024/04/15 06:40:40;;;;;;;12.95;1.63;;;;;;;5.64;100.00;99749.13;4715991;30;20101;-94
2024/04/15 06:43:06;;;;;;;11.93;1.25;;;;;;;5.65;100.00;99749.00;4718252;30;20049;-93
2024/04/15 06:45:33;;;;;;;10.10;1.80;;;;;;;5.70;100.00;99752.03;4734576;30;20037;-89
2024/04/15 06:47:59;;;;;;;8.30;1.48;;;;;;;5.77;100.00;99756.75;4718958;30;20037;-89
2024/04/15 06:50:25;;;;;;;15.02;1.98;;;;;;;5.82;100.00;99750.19;4713579;30;20043;-92
2024/04/15 06:52:52;;;;;;;11.05;1.83;;;;;;;5.86;100.00;99755.16;4718001;30;20044;-92
2024/04/15 06:55:19;;;;;;;8.95;1.98;;;;;;;5.99;100.00;99765.44;4703919;30;20068;-88
2024/04/15 06:57:45;;;;;;;10.48;1.17;;;;;;;6.05;100.00;99780.69;4707395;30;20051;-89
2024/04/15 07:00:12;;;;;;;7.72;1.45;;;;;;;6.09;100.00;99768.97;4722630;30;20147;-93
2024/04/15 07:02:40;;;;;;;10.98;1.83;;;;;;;6.19;100.00;99764.59;4748925;30;20155;-95
2024/04/15 07:05:07;;;;;;;12.98;1.42;;;;;;;6.36;100.00;99785.91;4737402;30;20114;-92
2024/04/15 07:07:35;;;;;;;11.30;1.70;;;;;;;6.49;100.00;99783.06;4720888;30;20051;-93
2024/04/15 07:10:04;;;;;;;8.85;1.58;;;;;;;6.60;100.00;99778.66;4722085;30;20040;-95
2024/04/15 07:12:30;;;;;;;10.32;1.85;;;;;;;6.66;100.00;99780.72;4742371;30;20040;-95
2024/04/15 07:14:56;;;;;;;13.32;1.73;;;;;;;6.75;100.00;99787.81;4727869;30;20048;-94
2024/04/15 07:17:22;;;;;;;7.07;1.65;;;;;;;6.77;100.00;99788.50;4734988;30;20083;-93
2024/04/15 07:19:48;;;;;;;8.45;1.65;;;;;;;6.78;100.00;99787.53;4711742;30;20051;-88
2024/04/15 07:22:16;;;;;;;11.38;1.83;;;;;;;6.89;100.00;99777.88;4715412;30;20194;-94
2024/04/15 07:24:42;;;;;;;9.10;1.83;;;;;;;6.95;100.00;99785.19;4708523;30;20067;-92
2024/04/15 07:27:07;;;;;;;16.23;2.05;;;;;;;7.02;100.00;99785.50;4715511;30;20125;-86
2024/04/15 07:29:33;;;;;;;13.35;1.88;;;;;;;7.00;100.00;99793.50;4694159;30;20044;-92
2024/04/15 07:31:59;;;;;;;12.77;2.13;;;;;;;7.07;100.00;99799.06;4703439;30;20061;-89
2024/04/15 07:34:25;;;;;;;13.90;1.98;;;;;;;7.12;100.00;99796.00;4695232;30;20044;-86
2024/04/15 07:36:53;;;;;;;15.73;2.00;;;;;;;7.15;100.00;99801.00;4712801;30;20491;-80
2024/04/15 07:39:19;;;;;;;18.00;3.00;;;;;;;7.06;100.00;99811.34;4711803;30;20056;-81
2024/04/15 07:41:45;;;;;;;10.57;2.50;;;;;;;6.96;100.00;99810.50;4711304;30;20041;-79
2024/04/15 07:44:11;;;;;;;14.32;2.88;;;;;;;6.87;100.00;99820.03;4728390;30;20499;-81
2024/04/15 07:46:37;;;;;;;14.48;2.65;;;;;;;6.81;100.00;99813.53;4727826;30;20051;-87
2024/04/15 07:49:03;;;;;;;13.85;2.08;;;;;;;6.63;100.00;99829.09;4709006;30;20589;-81
2024/04/15 07:51:29;;;;;;;13.90;2.35;;;;;;;6.51;100.00;99819.69;4708837;30;20768;-82
2024/04/15 07:53:54;;;;;;;12.02;1.52;;;;;;;6.55;100.00;99821.91;4729469;30;20411;-79
2024/04/15 07:56:20;;;;;;;9.45;1.67;;;;;;;6.61;100.00;99832.84;4741756;30;20105;-77
2024/04/15 07:58:46;;;;;;;11.52;1.95;;;;;;;6.58;100.00;99829.50;4746202;30;20422;-80
2024/04/15 08:01:12;;;;;;;4.43;1.45;;;;;;;6.67;100.00;99840.19;4728261;30;20028;-82
2024/04/15 08:03:38;;;;;;;5.07;0.70;;;;;;;6.63;100.00;99834.34;4731735;30;20610;-82
2024/04/15 08:06:04;;;;;;;5.20;0.90;;;;;;;6.64;100.00;99833.38;4734162;30;20068;-83
2024/04/15 08:08:29;;;;;;;5.13;0.85;;;;;;;6.73;100.00;99850.16;4735229;30;20044;-86
2024/04/15 08:10:57;;;;;;;3.85;0.70;;;;;;;6.82;100.00;99844.09;4714717;30;20059;-85
2024/04/15 08:13:22;;;;;;;7.28;1.33;;;;;;;6.81;100.00;99862.63;4703909;30;20055;-80
2024/04/15 08:15:48;;;;;;;8.75;1.35;;;;;;;6.86;100.00;99868.31;4719012;30;20394;-84
2024/04/15 08:18:15;;;;;;;13.00;2.95;;;;;;;6.97;100.00;99866.50;4742850;30;20041;-83
2024/04/15 08:20:40;;;;;;;8.77;1.73;;;;;;;7.04;100.00;99865.84;4717740;30;20131;-80
2024/04/15 08:23:06;;;;;;;12.50;2.28;;;;;;;7.07;100.00;99868.19;4716803;30;20565;-83
2024/04/15 08:25:32;;;;;;;9.30;1.90;;;;;;;7.07;100.00;99873.44;4716658;30;20049;-79
2024/04/15 08:27:58;;;;;;;10.70;1.95;;;;;;;7.16;100.00;99882.34;4742635;30;20082;-84
2024/04/15 08:30:24;;;;;;;9.23;1.67;;;;;;;7.21;100.00;99876.66;4714357;30;20044;-88
2024/04/15 08:32:52;;;;;;;13.23;2.30;;;;;;;7.22;100.00;99872.22;4734738;30;20052;-87
2024/04/15 08:35:18;;;;;;;18.92;3.05;;;;;;;7.22;100.00;99875.69;4733443;30;20049;-84
2024/04/15 08:37:44;;;;;;;12.93;2.30;;;;;;;7.29;100.00;99878.59;4733512;30;20048;-89
2024/04/15 08:40:10;;;;;;;13.35;2.53;;;;;;;7.43;100.00;99877.38;4734252;30;20655;-81
2024/04/15 08:42:53;;;;;;;15.50;2.25;;;;;;;7.45;100.00;99876.25;4732976;30;20072;-80
2024/04/15 08:45:21;;;;;;;14.30;2.55;;;;;;;7.39;100.00;99871.53;4710195;30;20156;-93
2024/04/15 08:47:52;;;;;;;14.35;2.33;;;;;;;7.44;100.00;99885.13;4727704;30;20067;-91
2024/04/15 08:50:22;;;;;;;17.42;2.63;;;;;;;7.31;100.00;99913.50;4729020;30;20048;-88
2024/04/15 08:52:54;;;;;;;14.43;2.00;;;;;;;7.04;100.00;99921.03;4698898;30;20048;-92
2024/04/15 08:55:24;;;;;;;5.93;1.02;;;;;;;6.64;100.00;99937.63;4739985;30;20042;-91
2024/04/15 08:57:52;;;;;;;14.27;2.20;;;;;;;6.25;100.00;99931.19;4709010;30;20045;-88
2024/04/15 09:00:23;;;;;;;7.38;1.40;;;;;;;6.16;100.00;99927.53;4724210;30;20052;-91
2024/04/15 09:03:01;;;;;;;7.28;1.25;;;;;;;6.20;100.00;99926.34;4724716;30;20048;-90
2024/04/15 09:05:34;;;;;;;7.97;1.48;;;;;;;6.36;100.00;99914.53;4708527;30;20083;-91
2024/04/15 09:08:03;;;;;;;6.47;1.00;;;;;;;6.39;100.00;99926.56;4732134;30;20036;-91
2024/04/15 09:10:35;;;;;;;6.18;1.23;;;;;;;6.52;100.00;99927.19;4735120;30;20097;-94
2024/04/15 09:13:10;;;;;;;8.18;1.20;;;;;;;6.71;100.00;99920.34;4722618;30;20041;-94
2024/04/15 09:15:39;;;;;;;12.10;1.65;;;;;;;6.74;100.00;99927.97;4718554;30;20539;-88
2024/04/15 09:18:06;;;;;;;8.68;1.75;;;;;;;6.86;100.00;99939.22;4746273;30;20040;-90
2024/04/15 09:20:45;;;;;;;7.40;1.30;;;;;;;7.17;100.00;99944.44;4734418;30;20044;-91
2024/04/15 09:23:17;;;;;;;8.52;1.48;;;;;;;7.32;100.00;99941.44;4721442;30;20515;-90
2024/04/15 09:25:47;;;;;;;9.68;2.03;;;;;;;7.38;100.00;99951.41;4723373;30;20053;-93
2024/04/15 09:28:13;;;;;;;9.35;1.67;;;;;;;7.38;100.00;99968.97;4707830;30;20040;-91
2024/04/15 09:30:39;;;;;;;7.30;1.33;;;;;;;7.27;100.00;99949.72;4707502;30;20195;-89
2024/04/15 09:33:25;;;;;;;;;;;;;;;;;;;;;
2024/04/15 09:35:57;;;;;;;5.85;1.00;;;;;;;7.34;100.00;99951.81;4747369;30;20055;-93
2024/04/15 09:38:23;;;;;;;11.02;1.70;;;;;;;7.43;100.00;99961.50;4720309;30;20050;-88
2024/04/15 09:40:52;;;;;;;7.22;1.42;;;;;;;7.50;100.00;99967.06;4716437;30;20775;-92
2024/04/15 09:43:23;;;;;;;8.45;1.48;;;;;;;7.49;100.00;99952.22;4726735;30;20053;-91
2024/04/15 09:45:57;;;;;;;8.15;1.25;;;;;;;7.52;100.00;99955.44;4701254;30;20045;-95
2024/04/15 09:48:25;;;;;;;15.32;2.33;;;;;;;7.68;100.00;99948.78;4717243;30;20045;-89
2024/04/15 09:51:06;;;;;;;12.95;1.90;;;;;;;7.76;100.00;99977.03;4701078;30;20172;-88
2024/04/15 09:53:38;;;;;;;13.07;1.77;;;;;;;7.77;100.00;99976.91;4704775;30;20123;-93
2024/04/15 09:56:12;;;;;;;8.98;1.48;;;;;;;7.87;100.00;99981.38;4739107;30;20056;-89
2024/04/15 09:58:43;;;;;;;3.25;1.02;;;;;;;7.89;100.00;99985.50;4714369;30;20049;-90
2024/04/15 10:01:19;;;;;;;8.98;1.27;;;;;;;7.87;100.00;99989.25;4732776;30;20045;-90
2024/04/15 10:03:52;;;;;;;9.40;1.70;;;;;;;7.71;100.00;99995.88;4696275;30;20037;-88
2024/04/15 10:07:24;;;;;;;8.13;1.30;;;;;;;7.68;100.00;100009.31;4724312;30;20135;-91
2024/04/15 10:10:06;;;;;;;;;;;;;;;;;;;;;
2024/04/15 10:12:52;;;;;;;10.48;1.80;;;;;;;7.78;100.00;99997.00;4731279;30;20510;-95
2024/04/15 10:15:25;;;;;;;10.18;2.05;;;;;;;7.88;100.00;99988.28;4722777;30;20110;-93
2024/04/15 10:17:58;;;;;;;7.50;1.50;;;;;;;8.03;100.00;99997.41;4707619;30;20125;-93
2024/04/15 10:20:34;;;;;;;9.50;1.55;;;;;;;8.12;100.00;99979.13;4721486;30;20131;-94
2024/04/15 10:23:04;;;;;;;8.95;1.80;;;;;;;8.17;100.00;99979.56;4746003;30;20128;-90
2024/04/15 10:25:37;;;;;;;9.93;1.50;;;;;;;8.38;100.00;99981.16;4732225;30;20154;-90
2024/04/15 10:28:08;;;;;;;14.45;2.42;;;;;;;8.36;100.00;99978.66;4716281;30;20106;-89
2024/04/15 10:30:36;;;;;;;13.07;2.15;;;;;;;8.51;100.00;99971.16;4744403;30;20044;-88
2024/04/15 10:33:11;;;;;;;14.40;3.53;;;;;;;8.54;100.00;99962.13;4715898;30;20049;-88
2024/04/15 10:35:39;;;;;;;11.60;2.33;;;;;;;8.55;100.00;99962.03;4714974;30;20037;-87
2024/04/15 10:38:11;;;;;;;11.30;2.35;;;;;;;8.62;100.00;99995.69;4747124;30;20429;-91
2024/04/15 10:40:44;;;;;;;12.25;1.95;;;;;;;8.06;100.00;100015.56;4720625;30;20120;-92
2024/04/15 10:43:24;;;;;;;7.25;1.00;;;;;;;7.58;100.00;100001.38;4709204;30;20049;-91
2024/04/15 10:45:53;;;;;;;5.82;0.98;;;;;;;7.43;100.00;100008.84;4716172;30;20064;-95
2024/04/15 10:48:26;;;;;;;6.25;0.65;;;;;;;7.44;100.00;99995.56;4745581;30;20753;-93
2024/04/15 10:51:03;;;;;;;4.35;0.80;;;;;;;7.55;100.00;99991.13;4747917;30;20049;-92
2024/04/15 10:53:29;;;;;;;2.40;0.45;;;;;;;7.55;100.00;99999.88;4717130;30;20128;-92
2024/04/15 10:56:03;;;;;;;4.15;0.80;;;;;;;7.67;100.00;99990.06;4715760;30;20131;-91
2024/04/15 10:58:38;;;;;;;5.72;0.77;;;;;;;7.86;100.00;100003.38;4718091;30;20047;-91
2024/04/15 11:01:05;;;;;;;13.23;1.35;;;;;;;7.88;100.00;100022.50;4730613;30;20041;-90
2024/04/15 11:03:37;;;;;;;6.90;1.35;;;;;;;7.92;100.00;100003.66;4719295;30;20471;-94
2024/04/15 11:06:19;;;;;;;7.28;1.63;;;;;;;8.05;100.00;100011.28;4742186;30;20152;-94
2024/04/15 11:08:48;;;;;;;8.68;1.30;;;;;;;8.05;100.00;100018.34;4704196;30;20044;-84
2024/04/15 11:11:22;;;;;;;8.52;1.50;;;;;;;8.13;100.00;99997.41;4739965;30;20139;-95
2024/04/15 11:13:48;;;;;;;12.40;1.58;;;;;;;8.15;100.00;100019.19;4719065;30;20068;-91
2024/04/15 11:16:14;;;;;;;8.68;1.20;;;;;;;8.13;100.00;100002.69;4703503;30;20083;-94
2024/04/15 11:18:40;;;;;;;5.25;1.02;;;;;;;8.13;100.00;99986.91;4733762;30;20051;-94
2024/04/15 11:21:14;;;;;;;11.77;2.58;;;;;;;8.29;100.00;99996.03;4705674;30;20795;-95
2024/04/15 11:23:40;;;;;;;9.95;1.70;;;;;;;8.66;100.00;100003.19;4717813;30;20048;-94
2024/04/15 11:26:11;;;;;;;7.40;1.58;;;;;;;8.54;100.00;100039.41;4705348;30;20044;-93
2024/04/15 11:28:45;;;;;;;10.98;1.60;;;;;;;7.97;100.00;100026.09;4743357;30;20495;-92
2024/04/15 11:31:20;;;;;;;11.25;2.05;;;;;;;7.45;100.00;100041.91;4718977;30;20094;-91
2024/04/15 11:33:46;;;;;;;7.85;1.70;;;;;;;7.36;100.00;100024.31;4718345;30;20135;-93
2024/04/15 11:36:16;;;;;;;8.93;1.08;;;;;;;7.60;100.00;99999.47;4729027;30;20048;-93
2024/04/15 11:38:46;;;;;;;6.60;1.13;;;;;;;7.68;100.00;100012.78;4727861;30;20052;-84
2024/04/15 11:41:12;;;;;;;8.77;1.10;;;;;;;7.92;100.00;99992.28;4731138;30;20060;-91
2024/04/15 11:43:42;;;;;;;7.97;1.23;;;;;;;8.17;100.00;100001.44;4718581;30;20055;-90
2024/04/15 11:46:18;;;;;;;5.15;0.90;;;;;;;8.38;100.00;99968.84;4709678;30;20033;-91
2024/04/15 11:48:44;;;;;;;6.38;1.38;;;;;;;8.58;100.00;99975.91;4728672;30;20064;-91
2024/04/15 11:51:16;;;;;;;11.75;1.70;;;;;;;8.61;100.00;99987.00;4715299;30;20048;-89
2024/04/15 11:54:00;;;;;;;11.20;1.38;;;;;;;8.69;100.00;99992.34;4732323;30;20051;-96
2024/04/15 11:56:26;;;;;;;12.38;1.70;;;;;;;8.80;100.00;99994.00;4709385;30;20229;-94
2024/04/15 11:58:53;;;;;;;9.75;1.55;;;;;;;8.98;100.00;99998.50;4718568;30;20112;-92
2024/04/15 12:01:19;;;;;;;8.48;1.40;;;;;;;8.93;100.00;99991.03;4703335;30;20059;-90
2024/04/15 12:03:52;;;;;;;14.95;1.95;;;;;;;9.22;100.00;99993.69;4703028;30;20051;-90
2024/04/15 12:06:18;;;;;;;9.77;2.25;;;;;;;9.30;100.00;100002.53;4719780;30;20048;-93
2024/04/15 12:08:47;;;;;;;6.43;1.42;;;;;;;9.28;100.00;100007.13;4704567;30;20045;-90
2024/04/15 12:11:15;;;;;;;10.80;1.60;;;;;;;9.22;100.00;100033.25;4705015;30;20202;-93
2024/04/15 12:13:44;;;;;;;7.28;1.35;;;;;;;9.28;100.00;100009.78;4731582;30;20049;-91
2024/04/15 12:16:13;;;;;;;8.20;1.98;;;;;;;9.35;100.00;100025.00;4718636;30;20056;-89
2024/04/15 12:18:40;;;;;;;9.32;1.83;;;;;;;9.55;100.00;100012.53;4731184;30;20080;-91
2024/04/15 12:21:13;;;;;;;11.10;1.50;;;;;;;9.38;100.00;100020.25;4716154;30;20037;-94
2024/04/15 12:23:39;;;;;;;7.03;1.35;;;;;;;9.11;100.00;100045.63;4731673;30;20047;-89
2024/04/15 12:26:07;;;;;;;9.73;1.55;;;;;;;8.62;100.00;100043.13;4719548;30;20057;-87
2024/04/15 12:28:36;;;;;;;8.68;1.13;;;;;;;8.07;100.00;100043.53;4714478;30;20072;-90
2024/04/15 12:31:02;;;;;;;4.28;0.80;;;;;;;7.82;100.00;100045.75;4716094;30;20076;-83
2024/04/15 12:33:30;;;;;;;8.00;1.00;;;;;;;7.57;100.00;100061.06;4695379;30;20102;-94
2024/04/15 12:35:56;;;;;;;4.85;1.00;;;;;;;7.34;100.00;100092.00;4712282;30;20037;-93
2024/04/15 12:38:23;;;;;;;7.60;1.08;;;;;;;7.18;100.00;100113.50;4711379;30;20047;-91
2024/04/15 12:40:52;;;;;;;4.55;0.77;;;;;;;6.91;100.00;100076.28;4725090;30;20048;-89
2024/04/15 12:43:24;;;;;;;6.05;0.73;;;;;;;6.69;100.00;100088.59;4729021;30;20508;-94
2024/04/15 12:45:59;;;;;;;6.57;0.90;;;;;;;6.65;100.00;100088.97;4718866;30;20045;-93
2024/04/15 12:48:41;;;;;;;5.13;2.15;;;;;;;6.86;100.00;100080.25;4715852;30;20041;-92
2024/04/15 12:51:07;;;;;;;6.07;1.55;;;;;;;7.07;100.00;100080.25;4736489;30;20044;-93
2024/04/15 12:53:36;;;;;;;6.57;0.90;;;;;;;7.28;100.00;100077.56;4706641;30;20045;-89
2024/04/15 12:56:02;;;;;;;8.45;1.17;;;;;;;7.52;100.00;100063.25;4728603;30;20560;-84
2024/04/15 12:58:31;;;;;;;6.53;1.55;;;;;;;7.71;100.00;100081.88;4723568;30;20051;-85
2024/04/15 13:01:05;;;;;;;7.15;1.80;;;;;;;7.98;100.00;100085.66;4719483;30;20131;-84
2024/04/15 13:03:31;;;;;;;7.72;1.35;;;;;;;8.15;100.00;100073.63;4729312;30;20529;-84
2024/04/15 13:06:06;;;;;;;5.38;1.20;;;;;;;8.41;100.00;100060.72;4727016;30;20053;-89
2024/04/15 13:08:38;;;;;;;12.63;1.38;;;;;;;8.39;100.00;100065.28;4701545;30;20049;-88
2024/04/15 13:11:07;;;;;;;6.03;1.27;;;;;;;8.36;100.00;100083.19;4729745;30;20049;-87